Time;durP1;ratioP1;P1;durP2;ratioP2;P2;SDS_P1;SDS_P2;PMS_P1;PMS_P2;Temp;Humidity;BMP_temperature;BMP_pressure;BME280_temperature;BME280_humidity;BME280_pressure;Samples;Min_cycle;Max_cycle;Signal;HPM_P1;HPM_P2
2023/08/16 07:09:31;;;;;;;1.20;0.80;;;23.60;99.90;25.30;101845.00;;;;6175935;22;1547781;-65
2023/08/16 07:12:24;;;;;;;0.40;0.40;;;22.90;99.90;25.80;101830.00;;;;6220928;23;20248;-65
2023/08/16 07:15:28;;;;;;;0.30;0.30;;;22.10;99.90;25.00;101798.00;;;;6220641;23;20154;-66
2023/08/16 07:18:29;;;;;;;0.10;0.10;;;22.40;99.90;25.10;101833.00;;;;6220813;23;20157;-65
2023/08/16 07:21:17;;;;;;;1.80;1.58;;;22.00;99.90;24.40;101826.00;;;;6195444;23;20235;-66
2023/08/16 07:24:24;;;;;;;0.10;0.10;;;21.50;99.90;25.40;101850.00;;;;6194577;23;20166;-65
2023/08/16 07:27:21;;;;;;;0.45;0.45;;;21.60;99.90;24.40;101840.00;;;;6195478;23;20601;-65
2023/08/16 07:30:51;;;;;;;0.82;0.40;;;21.40;99.90;23.80;101808.00;;;;6195823;23;20157;-65
2023/08/16 07:33:35;;;;;;;0.32;0.32;;;21.10;99.90;24.00;101829.00;;;;6196221;23;20173;-65
2023/08/16 07:36:39;;;;;;;0.38;0.28;;;21.10;99.90;24.00;101844.00;;;;6195589;23;20156;-65
2023/08/16 07:39:40;;;;;;;0.30;0.30;;;21.10;99.90;23.80;101849.00;;;;6212737;23;20166;-65
2023/08/16 07:42:44;;;;;;;0.10;0.10;;;20.70;99.90;26.00;101865.00;;;;6195728;23;20161;-65
2023/08/16 07:45:51;;;;;;;0.10;0.10;;;21.20;99.90;25.60;101863.00;;;;6220211;23;20616;-65
2023/08/16 07:48:41;;;;;;;0.30;0.30;;;21.90;99.90;26.50;101883.00;;;;6220262;23;20157;-65
2023/08/16 07:51:45;;;;;;;0.75;0.75;;;22.30;99.90;25.80;101895.00;;;;6220151;23;20158;-66
2023/08/16 07:54:46;;;;;;;0.30;0.30;;;22.70;99.90;25.70;101888.00;;;;6220438;23;20153;-65
2023/08/16 07:57:47;;;;;;;2.50;2.30;;;22.40;99.90;26.10;101883.00;;;;6195552;23;20165;-65
2023/08/16 08:00:46;;;;;;;0.10;0.10;;;22.60;99.90;28.60;101903.00;;;;6246780;23;20145;-66
2023/08/16 08:03:49;;;;;;;0.88;0.88;;;23.50;99.90;29.90;101947.00;;;;6209124;23;20166;-65
2023/08/16 08:06:59;;;;;;;0.10;0.10;;;25.00;99.90;28.90;101960.00;;;;6195045;23;20164;-66
2023/08/16 08:09:47;;;;;;;0.17;0.17;;;24.70;99.90;28.80;101976.00;;;;6190112;23;20165;-66
2023/08/16 08:12:52;;;;;;;0.22;0.22;;;24.70;99.90;29.90;101974.00;;;;6165136;23;20629;-66
2023/08/16 08:15:56;;;;;;;0.13;0.13;;;25.00;99.90;28.70;101989.00;;;;6189804;23;20158;-66
2023/08/16 08:18:50;;;;;;;0.47;0.47;;;24.60;99.90;28.40;101998.00;;;;6165193;23;20241;-66
2023/08/16 08:21:51;;;;;;;0.30;0.30;;;24.50;99.90;27.20;101998.00;;;;6164717;23;20595;-66
2023/08/16 08:24:59;;;;;;;0.25;0.25;;;24.40;99.90;28.40;101974.00;;;;6190044;23;20149;-66
2023/08/16 08:28:03;;;;;;;0.20;0.20;;;23.90;99.90;28.40;101996.00;;;;6190593;23;20233;-66
2023/08/16 08:31:04;;;;;;;0.10;0.10;;;24.50;99.90;29.60;101988.00;;;;6216643;23;20157;-66
2023/08/16 08:33:53;;;;;;;0.10;0.10;;;24.80;99.90;29.80;101990.00;;;;6189759;23;20196;-65
2023/08/16 08:36:56;;;;;;;0.40;0.40;;;25.20;99.90;28.60;102007.00;;;;6188629;23;20166;-66
2023/08/16 08:39:46;;;;;;;1.63;1.05;;;24.80;99.90;26.90;101989.00;;;;6165879;23;20158;-65
2023/08/16 08:42:51;;;;;;;0.15;0.13;;;23.90;99.90;29.70;101964.00;;;;6189920;23;20146;-66
2023/08/16 08:45:49;;;;;;;0.10;0.10;;;24.90;99.90;30.90;101972.00;;;;6189781;23;20218;-65
2023/08/16 08:52:52;;;;;;;0.10;0.10;;;26.80;99.90;31.00;101956.00;;;;6212305;23;20224;-66
2023/08/16 08:56:09;;;;;;;1.45;0.57;;;27.00;99.90;30.40;101953.00;;;;6166846;23;20242;-66
2023/08/16 08:59:12;;;;;;;0.28;0.20;;;26.70;99.90;30.20;101935.00;;;;6189845;23;20237;-66
2023/08/16 09:02:06;;;;;;;3.70;1.10;;;26.40;99.90;26.70;102025.00;;;;6160014;23;20244;-65
2023/08/16 09:04:52;;;;;;;0.10;0.10;;;24.90;99.90;30.30;101976.00;;;;6110878;23;20216;-66
2023/08/16 09:07:43;;;;;;;1.38;0.98;;;25.40;99.90;29.50;101974.00;;;;6169123;23;20208;-67
2023/08/16 09:10:38;;;;;;;0.35;0.30;;;26.50;99.90;30.60;101979.00;;;;6220444;23;20138;-66
2023/08/16 09:13:15;;;;;;;0.30;0.30;;;26.30;99.90;31.20;101972.00;;;;6194618;23;20226;-67
2023/08/16 09:16:04;;;;;;;1.55;1.45;;;26.70;99.90;28.00;102017.00;;;;6219705;23;20152;-66
2023/08/16 09:18:50;;;;;;;0.30;0.30;;;25.50;99.90;29.60;102007.00;;;;6194278;23;20193;-67
2023/08/16 09:21:40;;;;;;;0.10;0.10;;;25.70;99.90;31.00;101978.00;;;;6194961;23;20649;-67
2023/08/16 09:24:24;;;;;;;0.10;0.10;;;26.10;99.90;30.90;101980.00;;;;6219824;23;20158;-66
2023/08/16 09:26:52;;;;;;;2.05;1.85;;;26.20;99.90;28.40;102028.00;;;;6194394;23;20257;-67
2023/08/16 09:29:19;;;;;;;0.85;0.85;;;25.90;99.90;28.40;102022.00;;;;6219582;23;20146;-66
2023/08/16 09:32:08;;;;;;;0.40;0.40;;;25.00;99.90;30.00;102001.00;;;;6219377;23;20195;-66
2023/08/16 09:34:53;;;;;;;1.85;1.30;;;25.40;99.90;30.50;102007.00;;;;6194449;23;20200;-67
2023/08/16 09:37:42;;;;;;;0.28;0.28;;;26.00;99.90;30.80;101997.00;;;;6194183;23;20162;-67
2023/08/16 09:40:28;;;;;;;0.55;0.55;;;26.20;99.90;29.00;102022.00;;;;6219178;23;20142;-67
2023/08/16 09:43:00;;;;;;;6.45;1.20;;;25.90;99.90;28.70;102032.00;;;;6194197;23;20165;-66
2023/08/16 09:45:48;;;;;;;0.20;0.20;;;25.80;99.90;30.80;102012.00;;;;6219665;23;20573;-66
2023/08/16 09:48:38;;;;;;;0.50;0.50;;;25.90;99.90;31.30;102012.00;;;;6194121;23;20163;-67
2023/08/16 09:51:24;;;;;;;1.48;1.17;;;26.60;99.90;29.50;102014.00;;;;6194641;23;20160;-66
2023/08/16 09:54:14;;;;;;;1.55;1.45;;;26.80;99.90;31.40;101993.00;;;;6194049;23;20629;-67
2023/08/16 09:57:00;;;;;;;0.35;0.35;;;26.90;99.90;30.90;102002.00;;;;6219964;23;20533;-66
2023/08/16 09:59:50;;;;;;;0.20;0.20;;;27.60;99.90;32.70;101961.00;;;;6194445;23;20240;-67
2023/08/16 10:02:42;;;;;;;0.30;0.30;;;27.80;99.90;32.10;101982.00;;;;6192729;23;20189;-66
2023/08/16 10:05:28;;;;;;;0.73;0.73;;;28.00;99.90;32.30;101972.00;;;;6219319;23;20153;-67
2023/08/16 10:08:15;;;;;;;3.95;1.35;;;28.10;99.90;31.30;101990.00;;;;6193653;23;20239;-66
2023/08/16 10:11:00;;;;;;;0.45;0.45;;;27.30;99.90;31.20;101990.00;;;;6219332;23;20157;-66
2023/08/16 10:13:34;;;;;;;0.10;0.10;;;27.30;99.90;32.10;101973.00;;;;6194181;23;20185;-66
2023/08/16 10:16:21;;;;;;;0.20;0.20;;;27.70;99.90;31.70;101951.00;;;;6218928;23;20165;-67
2023/08/16 10:19:08;;;;;;;0.82;0.68;;;27.70;99.90;30.30;101999.00;;;;6194255;23;20477;-66
2023/08/16 10:33:48;;;;;;;0.47;0.35;;;25.60;99.90;29.70;101970.00;;;;5051657;28;21144;-67
2023/08/16 10:36:35;;;;;;;0.28;0.28;;;25.90;99.90;30.90;101988.00;;;;5052134;28;20652;-67
2023/08/16 10:39:22;;;;;;;0.10;0.10;;;26.50;99.90;30.30;101997.00;;;;5043248;28;20585;-67
2023/08/16 10:45:56;;;;;;;0.73;0.70;;;26.20;99.90;31.00;101982.00;;;;5040394;28;20204;-67
2023/08/16 10:48:43;;;;;;;0.20;0.20;;;27.00;99.90;30.80;101994.00;;;;5033865;28;20184;-67
2023/08/16 10:51:30;;;;;;;0.38;0.38;;;26.90;99.90;30.90;101997.00;;;;5035434;28;20247;-67
2023/08/16 10:54:19;;;;;;;0.10;0.10;;;26.90;99.90;31.80;101974.00;;;;5052756;28;20188;-67
2023/08/16 10:57:05;;;;;;;0.22;0.20;;;27.20;99.90;32.10;101964.00;;;;5039103;28;20188;-67
2023/08/16 10:59:42;;;;;;;0.10;0.10;;;27.40;99.90;29.90;101993.00;;;;5036406;28;20197;-67
2023/08/16 11:02:32;;;;;;;0.65;0.65;;;26.40;99.90;31.80;101979.00;;;;5033715;28;20186;-67
2023/08/16 11:05:24;;;;;;;0.10;0.10;;;26.90;99.90;31.30;101982.00;;;;5057878;28;20186;-67
2023/08/16 11:08:13;;;;;;;0.10;0.10;;;27.10;99.90;31.30;101988.00;;;;5049662;28;20722;-67
2023/08/16 11:10:58;;;;;;;1.38;0.90;;;27.00;99.90;27.90;102021.00;;;;5058079;28;20178;-67
2023/08/16 11:13:45;;;;;;;0.10;0.10;;;25.70;99.90;30.50;101999.00;;;;5066869;28;20178;-65
2023/08/16 11:16:14;;;;;;;1.70;1.60;;;26.00;99.90;28.00;102011.00;;;;5050226;28;20542;-65
2023/08/16 11:19:06;;;;;;;0.10;0.10;;;25.60;99.90;31.20;101992.00;;;;5058821;28;20167;-65
2023/08/16 11:21:53;;;;;;;0.50;0.50;;;26.30;99.90;32.30;101956.00;;;;5061346;28;20174;-65
2023/08/16 11:24:37;;;;;;;0.57;0.57;;;27.50;99.90;31.80;101964.00;;;;5023920;28;20204;-65
2023/08/16 11:27:12;;;;;;;0.38;0.38;;;27.70;99.90;29.90;101960.00;;;;5054742;28;20187;-65
2023/08/16 11:30:02;;;;;;;0.30;0.30;;;27.40;99.90;32.90;101917.00;;;;5031865;28;20580;-65
2023/08/16 11:32:43;;;;;;;0.73;0.40;;;27.90;99.90;33.10;101894.00;;;;5044783;28;20253;-65
2023/08/16 11:35:30;;;;;;;0.10;0.10;;;28.30;99.90;33.80;101882.00;;;;5031454;28;20703;-65
2023/08/16 11:43:02;;;;;;;0.10;0.10;;;28.50;99.90;33.20;101891.00;;;;5041925;28;20198;-65
2023/08/16 11:45:54;;;;;;;0.50;0.50;;;28.80;99.90;31.00;101933.00;;;;4988764;28;20203;-65
2023/08/16 11:48:38;;;;;;;0.10;0.10;;;28.30;99.90;31.30;101924.00;;;;5033619;28;20555;-65
2023/08/16 11:51:11;;;;;;;0.10;0.10;;;27.60;99.90;31.70;101929.00;;;;5002134;28;20198;-65
2023/08/16 11:53:40;;;;;;;1.02;0.93;;;27.40;99.90;31.10;101949.00;;;;5017118;28;20214;-65
2023/08/16 11:56:32;;;;;;;0.30;0.30;;;27.50;99.90;31.20;101943.00;;;;5016628;28;20677;-65
2023/08/16 11:59:28;;;;;;;0.35;0.35;;;27.50;99.90;30.80;101955.00;;;;5016527;28;20548;-67
2023/08/16 12:02:14;;;;;;;0.77;0.77;;;27.10;99.90;31.70;101941.00;;;;4997498;28;20203;-67
2023/08/16 12:05:18;;;;;;;1.67;1.58;;;27.20;99.90;32.20;101933.00;;;;5004190;28;20226;-65
2023/08/16 12:08:19;;;;;;;0.10;0.10;;;27.60;99.90;30.80;101972.00;;;;5010826;28;20724;-65
2023/08/16 12:11:09;;;;;;;0.20;0.20;;;27.40;99.90;30.80;101970.00;;;;5014033;28;20190;-65
2023/08/16 12:13:41;;;;;;;0.10;0.10;;;27.00;99.90;31.20;101967.00;;;;5000571;28;20774;-65
2023/08/16 12:16:27;;;;;;;0.30;0.30;;;27.00;99.90;30.60;101978.00;;;;5016917;28;20210;-65
2023/08/16 12:19:37;;;;;;;1.23;1.13;;;26.60;99.90;29.50;101997.00;;;;5049257;28;20178;-65
2023/08/16 12:22:10;;;;;;;0.55;0.55;;;26.30;99.90;30.90;101974.00;;;;5020146;28;20185;-65
2023/08/16 12:24:59;;;;;;;1.08;0.50;;;26.50;99.90;30.60;101970.00;;;;5034076;28;20249;-66
2023/08/16 12:27:45;;;;;;;0.10;0.10;;;27.00;99.90;30.40;101966.00;;;;5030407;28;20273;-66
2023/08/16 12:30:31;;;;;;;0.20;0.20;;;26.90;99.90;29.40;101979.00;;;;5049404;28;20269;-66
2023/08/16 12:33:20;;;;;;;0.10;0.10;;;25.80;99.90;31.70;101921.00;;;;5034889;28;20238;-66
2023/08/16 12:36:21;;;;;;;0.43;0.43;;;26.80;99.90;31.90;101934.00;;;;5033513;28;20187;-65
2023/08/16 12:39:05;;;;;;;1.00;0.90;;;27.30;99.90;28.30;101974.00;;;;5017265;28;20197;-66
2023/08/16 12:41:54;;;;;;;0.10;0.10;;;26.20;99.90;29.90;101964.00;;;;5038029;28;20197;-66
2023/08/16 12:44:45;;;;;;;0.17;0.17;;;26.10;99.90;30.10;101970.00;;;;5041636;28;20676;-65
2023/08/16 12:47:19;;;;;;;0.10;0.10;;;26.10;99.90;29.80;101981.00;;;;5037887;28;20201;-65
2023/08/16 12:50:07;;;;;;;0.75;0.75;;;26.00;99.90;30.30;101969.00;;;;5033744;28;20683;-65
2023/08/16 12:53:16;;;;;;;0.20;0.20;;;26.20;99.90;30.80;101958.00;;;;5022246;28;20222;-65
2023/08/16 12:56:26;;;;;;;2.33;0.65;;;26.60;99.90;30.10;101958.00;;;;5045441;28;20198;-66
2023/08/16 12:59:14;;;;;;;0.10;0.10;;;26.70;99.90;32.20;101905.00;;;;5041286;28;20667;-66
2023/08/16 13:02:03;;;;;;;1.48;1.33;;;27.20;99.90;30.40;101914.00;;;;5018066;28;20190;-66
2023/08/16 13:04:49;;;;;;;1.20;1.13;;;27.20;99.90;29.70;101952.00;;;;5036090;28;20171;-66
2023/08/16 13:07:36;;;;;;;0.60;0.55;;;26.70;99.90;28.90;101973.00;;;;5039015;28;20194;-66
2023/08/16 13:10:20;;;;;;;1.00;0.50;;;25.90;99.90;29.80;101958.00;;;;5026718;28;20175;-65
2023/08/16 13:13:29;;;;;;;0.13;0.13;;;26.10;99.90;30.20;101958.00;;;;5043424;28;20206;-65
2023/08/16 13:16:19;;;;;;;0.93;0.73;;;26.50;99.90;28.90;101972.00;;;;5017413;28;20550;-65
2023/08/16 13:19:15;;;;;;;0.40;0.40;;;26.00;99.90;29.10;101977.00;;;;5033168;28;20217;-65
2023/08/16 13:26:28;;;;;;;1.10;0.90;;;25.70;99.90;29.10;101970.00;;;;4894316;29;20196;-66
2023/08/16 13:29:30;;;;;;;0.38;0.38;;;26.00;99.90;28.70;101988.00;;;;4807192;29;20216;-65
2023/08/16 13:32:18;;;;;;;0.08;0.08;;;25.50;99.90;31.00;101957.00;;;;4813945;29;20263;-66
2023/08/16 13:34:49;;;;;;;0.10;0.10;;;26.10;99.90;31.20;101946.00;;;;4867174;29;20246;-66
2023/08/16 13:37:28;;;;;;;0.30;0.30;;;26.60;99.90;30.20;101975.00;;;;4889993;29;20207;-67
2023/08/16 13:40:16;;;;;;;1.55;0.50;;;26.50;99.90;29.90;101967.00;;;;4936116;29;20737;-65
2023/08/16 13:43:13;;;;;;;0.30;0.30;;;25.80;99.90;30.50;101961.00;;;;4899710;29;20277;-65
2023/08/16 13:46:02;;;;;;;0.10;0.10;;;26.10;99.90;31.80;101932.00;;;;4902063;29;20297;-66
2023/08/16 13:48:37;;;;;;;1.35;0.25;;;26.70;99.90;31.40;101943.00;;;;4914104;29;20202;-66
2023/08/16 13:51:30;;;;;;;0.20;0.20;;;26.90;99.90;30.60;101937.00;;;;4918442;29;20190;-66
2023/08/16 13:54:02;;;;;;;0.22;0.22;;;26.70;99.90;30.50;101951.00;;;;4912906;29;20645;-66
2023/08/16 13:56:51;;;;;;;0.10;0.10;;;26.50;99.90;31.10;101945.00;;;;4911513;29;20202;-66
2023/08/16 13:59:40;;;;;;;2.08;1.17;;;26.60;99.90;28.70;101976.00;;;;4911834;29;20598;-66
2023/08/16 14:02:37;;;;;;;0.35;0.35;;;26.10;99.90;30.10;101960.00;;;;4937664;28;20207;-66
2023/08/16 14:05:27;;;;;;;0.20;0.20;;;26.10;99.90;30.30;101950.00;;;;4932957;28;20197;-66
2023/08/16 14:08:16;;;;;;;0.38;0.38;;;26.10;99.90;31.20;101948.00;;;;4955958;28;20208;-67
2023/08/16 14:11:11;;;;;;;0.28;0.28;;;26.40;99.90;30.40;101958.00;;;;4934896;28;20300;-66
2023/08/16 14:13:57;;;;;;;0.30;0.30;;;26.20;99.90;30.00;101949.00;;;;4956181;28;20219;-67
2023/08/16 14:16:43;;;;;;;9.02;0.80;;;26.20;99.90;30.10;101957.00;;;;4940374;28;20721;-66
2023/08/16 14:19:32;;;;;;;0.20;0.20;;;26.00;99.90;30.50;101951.00;;;;4955943;28;20553;-67
2023/08/16 14:22:18;;;;;;;0.10;0.10;;;26.20;99.90;31.10;101948.00;;;;5037891;28;20675;-66
2023/08/16 14:25:01;;;;;;;0.10;0.10;;;26.40;99.90;29.70;101972.00;;;;5043691;28;20207;-66
2023/08/16 14:27:41;;;;;;;0.47;0.47;;;25.90;99.90;30.80;101951.00;;;;5014014;28;20200;-67
2023/08/16 14:30:39;;;;;;;1.48;0.20;;;26.10;99.90;29.60;101959.00;;;;5036632;28;20421;-66
2023/08/16 14:33:12;;;;;;;0.30;0.20;;;25.90;99.90;29.60;101966.00;;;;5032119;28;20628;-67
2023/08/16 14:36:00;;;;;;;0.40;0.40;;;25.90;99.90;30.60;101946.00;;;;5048893;28;20213;-67
2023/08/16 14:38:34;;;;;;;0.73;0.73;;;26.20;99.90;30.80;101937.00;;;;5034285;28;20605;-67
2023/08/16 14:41:42;;;;;;;3.42;1.10;;;26.50;99.90;29.70;101933.00;;;;5066021;28;20288;-67
2023/08/16 14:44:30;;;;;;;0.30;0.30;;;26.20;99.90;28.10;101953.00;;;;5044740;28;20281;-66
2023/08/16 14:47:10;;;;;;;0.55;0.20;;;25.40;99.90;29.30;101965.00;;;;5020733;28;20203;-66
2023/08/16 14:49:53;;;;;;;4.75;1.08;;;25.20;99.90;29.30;101959.00;;;;5031627;28;20629;-66
2023/08/16 14:52:27;;;;;;;0.10;0.10;;;25.50;99.90;29.50;101930.00;;;;5034383;28;20546;-66
2023/08/16 14:55:13;;;;;;;0.20;0.20;;;25.40;99.90;29.70;101954.00;;;;5019381;28;20233;-67
2023/08/16 14:57:46;;;;;;;0.55;0.43;;;25.50;99.90;30.40;101940.00;;;;5008327;28;20194;-67
2023/08/16 15:00:33;;;;;;;0.20;0.20;;;25.80;99.90;30.50;101934.00;;;;5035925;28;20181;-67
2023/08/16 15:03:34;;;;;;;0.10;0.10;;;26.10;99.90;28.50;101969.00;;;;5030070;28;20190;-66
2023/08/16 15:06:22;;;;;;;0.80;0.60;;;25.10;99.90;28.10;101967.00;;;;5015035;28;20191;-66
2023/08/16 15:09:05;;;;;;;0.15;0.15;;;25.10;99.90;30.00;101929.00;;;;5039557;28;20222;-67
2023/08/16 15:11:41;;;;;;;0.55;0.55;;;25.60;99.90;28.60;101947.00;;;;5016098;28;20203;-66
2023/08/16 15:14:25;;;;;;;0.10;0.10;;;25.40;99.90;30.00;101920.00;;;;5035004;28;20186;-67
2023/08/16 15:17:11;;;;;;;0.10;0.10;;;25.60;99.90;31.10;101905.00;;;;5023023;28;20241;-67
2023/08/16 15:20:15;;;;;;;0.20;0.20;;;26.20;99.90;29.60;101938.00;;;;5036050;28;20612;-67
2023/08/16 15:22:58;;;;;;;0.20;0.20;;;26.00;99.90;30.50;101918.00;;;;5036218;28;20191;-67
2023/08/16 15:25:43;;;;;;;0.10;0.10;;;26.10;99.90;30.10;101926.00;;;;5045265;28;20191;-67
2023/08/16 15:28:27;;;;;;;0.10;0.10;;;26.00;99.90;29.10;101958.00;;;;5022981;28;20214;-67
2023/08/16 15:31:11;;;;;;;0.25;0.25;;;25.40;99.90;29.20;101940.00;;;;5030666;28;20179;-67
2023/08/16 15:33:54;;;;;;;0.30;0.22;;;25.20;99.90;29.00;101948.00;;;;5054182;28;20186;-67
2023/08/16 15:36:43;;;;;;;0.10;0.10;;;25.20;99.90;29.60;101933.00;;;;5018760;28;20277;-67
2023/08/16 15:39:35;;;;;;;0.20;0.20;;;25.30;99.90;29.60;101937.00;;;;5024357;28;20273;-67
2023/08/16 15:42:18;;;;;;;0.10;0.10;;;25.20;99.90;30.20;101920.00;;;;5004855;28;20275;-67
2023/08/16 15:45:03;;;;;;;0.15;0.15;;;25.40;99.90;30.00;101897.00;;;;5035235;28;20171;-67
2023/08/16 15:47:58;;;;;;;0.43;0.43;;;25.70;99.90;30.50;101913.00;;;;5041042;28;20182;-67
2023/08/16 15:50:45;;;;;;;0.10;0.10;;;25.80;99.90;29.50;101945.00;;;;5023220;28;20281;-67
2023/08/16 15:53:31;;;;;;;0.10;0.10;;;25.40;99.90;29.40;101935.00;;;;5035367;28;20252;-68
2023/08/16 15:56:16;;;;;;;0.10;0.10;;;25.40;99.90;29.90;101900.00;;;;5050389;28;20268;-67
2023/08/16 15:59:15;;;;;;;0.10;0.10;;;25.40;99.90;29.90;101912.00;;;;5034737;28;20179;-67
2023/08/16 16:01:45;;;;;;;0.30;0.30;;;25.40;99.90;29.60;101903.00;;;;5049532;28;20190;-67
2023/08/16 16:04:37;;;;;;;0.10;0.10;;;25.40;99.90;30.60;101886.00;;;;5041402;28;20190;-67
2023/08/16 16:07:25;;;;;;;0.28;0.28;;;25.60;99.90;30.40;101892.00;;;;5040092;28;20182;-68
2023/08/16 16:09:54;;;;;;;0.10;0.10;;;25.80;99.90;30.30;101885.00;;;;5027446;28;20700;-67
2023/08/16 16:12:42;;;;;;;0.10;0.10;;;25.90;99.90;29.90;101902.00;;;;5034249;28;20199;-67
2023/08/16 16:15:11;;;;;;;0.10;0.10;;;25.60;99.90;29.10;101928.00;;;;5037617;28;20218;-67
2023/08/16 16:17:45;;;;;;;0.10;0.10;;;25.50;99.90;29.40;101926.00;;;;5049230;28;20186;-67
2023/08/16 16:20:29;;;;;;;0.20;0.20;;;25.20;99.90;29.10;101897.00;;;;5036396;28;20186;-67
2023/08/16 16:23:09;;;;;;;0.10;0.10;;;25.30;99.90;30.00;101880.00;;;;5015463;28;20188;-67
2023/08/16 16:25:54;;;;;;;0.30;0.30;;;25.50;99.90;28.30;101926.00;;;;5035652;28;20565;-67
2023/08/16 16:28:42;;;;;;;0.10;0.10;;;25.40;99.90;29.40;101927.00;;;;5028753;28;20628;-67
2023/08/16 16:31:13;;;;;;;2.65;0.90;;;25.10;99.90;28.80;101926.00;;;;5035938;28;20217;-66
2023/08/16 16:33:57;;;;;;;0.10;0.10;;;25.20;99.90;28.80;101925.00;;;;5022765;28;20190;-66
2023/08/16 16:36:37;;;;;;;0.15;0.15;;;25.10;99.90;28.40;101927.00;;;;5033885;28;20187;-67
2023/08/16 16:39:21;;;;;;;1.08;0.52;;;25.10;99.90;27.90;101934.00;;;;5037066;28;20178;-66
2023/08/16 16:42:05;;;;;;;0.50;0.50;;;24.70;99.90;27.40;101938.00;;;;5022671;28;20194;-64
2023/08/16 16:44:51;;;;;;;0.10;0.10;;;24.40;99.90;28.40;101921.00;;;;5051484;28;20599;-67
2023/08/16 16:47:35;;;;;;;0.10;0.10;;;24.50;99.90;28.20;101903.00;;;;5033280;28;20191;-64
2023/08/16 16:50:04;;;;;;;0.73;0.60;;;24.50;99.90;27.80;101928.00;;;;5054107;28;20182;-66
2023/08/16 16:52:34;;;;;;;0.15;0.15;;;24.50;99.90;27.30;101938.00;;;;5040631;28;20225;-66
2023/08/16 16:55:17;;;;;;;1.20;0.43;;;24.40;99.90;27.90;101924.00;;;;5034809;28;20257;-67
2023/08/16 16:58:12;;;;;;;0.20;0.20;;;24.20;99.90;28.00;101932.00;;;;5029831;28;20190;-67
2023/08/16 17:00:40;;;;;;;0.43;0.43;;;24.30;99.90;27.50;101934.00;;;;5023132;28;20199;-67
2023/08/16 17:03:26;;;;;;;0.40;0.40;;;24.20;99.90;28.00;101929.00;;;;5038687;28;20185;-67
2023/08/16 17:06:09;;;;;;;0.22;0.22;;;24.10;99.90;28.00;101896.00;;;;5031957;28;20213;-67
2023/08/16 17:08:38;;;;;;;0.80;0.80;;;24.30;99.90;27.30;101935.00;;;;5046675;28;20710;-65
2023/08/16 17:11:13;;;;;;;0.10;0.10;;;24.20;99.90;27.20;101925.00;;;;5034190;28;20710;-66
2023/08/16 17:13:51;;;;;;;0.30;0.30;;;23.90;99.90;27.20;101921.00;;;;5020888;28;20236;-66
2023/08/16 17:16:24;;;;;;;0.17;0.17;;;23.90;99.90;27.70;101925.00;;;;5038211;28;20183;-67
2023/08/16 17:18:58;;;;;;;0.35;0.35;;;24.10;99.90;27.90;101915.00;;;;5038379;28;20241;-66
2023/08/16 17:21:28;;;;;;;0.20;0.20;;;24.20;99.90;27.50;101899.00;;;;5017214;28;20288;-64
2023/08/16 17:24:12;;;;;;;0.15;0.15;;;24.00;99.90;27.20;101888.00;;;;5043714;28;20181;-66
2023/08/16 17:26:55;;;;;;;0.30;0.30;;;24.00;99.90;27.00;101877.00;;;;5019292;28;20190;-67
2023/08/16 17:29:43;;;;;;;1.02;0.95;;;24.00;99.90;26.80;101849.00;;;;5045129;28;20186;-67
2023/08/16 17:32:26;;;;;;;0.40;0.40;;;23.80;99.90;26.70;101840.00;;;;5036486;28;20218;-67
2023/08/16 17:34:53;;;;;;;0.20;0.20;;;23.70;99.90;26.90;101857.00;;;;5018013;28;20250;-66
2023/08/16 17:37:27;;;;;;;0.20;0.20;;;23.80;99.90;27.20;101855.00;;;;5038951;28;20194;-67
2023/08/16 17:40:10;;;;;;;0.30;0.30;;;23.90;99.90;27.60;101856.00;;;;5047453;28;20217;-67
2023/08/16 17:42:46;;;;;;;0.40;0.40;;;23.90;99.90;27.20;101852.00;;;;5011719;28;20282;-66
2023/08/16 17:45:32;;;;;;;0.40;0.40;;;23.90;99.90;27.80;101876.00;;;;5040215;28;20634;-67
2023/08/16 17:48:06;;;;;;;0.10;0.10;;;24.00;99.90;27.20;101878.00;;;;5035337;28;20198;-67
2023/08/16 17:50:40;;;;;;;0.47;0.47;;;23.90;99.90;26.40;101890.00;;;;5034748;28;20186;-66
2023/08/16 17:53:24;;;;;;;0.10;0.10;;;23.70;99.90;27.10;101899.00;;;;5024917;28;20211;-67
2023/08/16 18:04:53;;;;;;;0.22;0.22;;;24.00;99.90;27.20;101903.00;;;;5044889;28;20661;-66
2023/08/16 18:07:41;;;;;;;0.20;0.20;;;23.70;99.90;27.70;101895.00;;;;5067126;28;20181;-66
2023/08/16 18:10:25;;;;;;;0.60;0.60;;;23.90;99.90;26.90;101882.00;;;;5055251;28;20193;-66
2023/08/16 18:12:51;;;;;;;0.25;0.25;;;23.80;99.90;27.20;101908.00;;;;5047757;28;20205;-66
2023/08/16 18:15:40;;;;;;;0.10;0.10;;;23.70;99.90;27.30;101900.00;;;;5056279;28;20205;-67
2023/08/16 18:18:25;;;;;;;0.28;0.28;;;23.60;99.90;26.70;101900.00;;;;5059252;28;20216;-67
2023/08/16 18:21:15;;;;;;;0.10;0.10;;;23.60;99.90;28.20;101892.00;;;;5049387;28;20185;-67
2023/08/16 18:23:58;;;;;;;0.20;0.20;;;24.00;99.90;27.40;101905.00;;;;5035707;28;20277;-66
2023/08/16 18:26:33;;;;;;;0.10;0.10;;;24.00;99.90;27.60;101896.00;;;;5051312;28;20185;-66
2023/08/16 18:29:06;;;;;;;0.20;0.20;;;23.80;99.90;27.80;101903.00;;;;5057395;28;20731;-66
2023/08/16 18:32:02;;;;;;;0.10;0.10;;;23.90;99.90;27.70;101883.00;;;;5058712;28;20254;-66
2023/08/16 18:34:46;;;;;;;0.30;0.30;;;23.80;99.90;27.30;101899.00;;;;5075208;28;20201;-66
2023/08/16 18:37:29;;;;;;;0.50;0.50;;;23.90;99.90;27.10;101875.00;;;;5042764;28;20203;-66
2023/08/16 18:39:58;;;;;;;1.75;1.00;;;23.70;99.90;27.10;101889.00;;;;5050927;28;20204;-66
2023/08/16 18:42:41;;;;;;;0.20;0.20;;;23.60;99.90;27.10;101888.00;;;;5056082;28;20189;-66
2023/08/16 18:45:19;;;;;;;0.20;0.20;;;23.70;99.90;26.50;101875.00;;;;5037832;28;20217;-66
2023/08/16 18:48:03;;;;;;;0.13;0.13;;;23.40;99.90;26.40;101860.00;;;;5051611;28;20180;-66
2023/08/16 18:50:46;;;;;;;0.10;0.10;;;23.20;99.90;27.00;101858.00;;;;5054855;28;20189;-66
2023/08/16 18:53:33;;;;;;;0.40;0.40;;;23.20;99.90;26.40;101830.00;;;;5053630;28;20667;-66
2023/08/16 18:56:17;;;;;;;0.65;0.47;;;23.30;99.90;27.00;101863.00;;;;5085499;28;20536;-67
2023/08/16 18:59:00;;;;;;;0.20;0.20;;;23.30;99.90;26.50;101861.00;;;;5055319;28;20285;-66
2023/08/16 19:01:33;;;;;;;0.10;0.10;;;23.20;99.90;26.20;101859.00;;;;5061568;28;20185;-66
2023/08/16 19:04:08;;;;;;;1.10;0.52;;;23.10;99.90;26.30;101852.00;;;;5044838;28;20551;-66
2023/08/16 19:06:51;;;;;;;0.10;0.10;;;23.00;99.90;25.80;101838.00;;;;5067512;28;20606;-66
2023/08/16 19:09:25;;;;;;;0.10;0.10;;;22.80;99.90;26.20;101840.00;;;;5051055;28;20200;-66
2023/08/16 19:11:58;;;;;;;2.40;0.40;;;23.00;99.90;25.30;101844.00;;;;5060539;28;20204;-66
2023/08/16 19:14:42;;;;;;;0.22;0.22;;;22.80;99.90;26.20;101814.00;;;;5074373;28;20193;-66
2023/08/16 19:17:38;;;;;;;0.20;0.20;;;22.90;99.90;26.70;101847.00;;;;5054663;28;20222;-66
2023/08/16 19:20:26;;;;;;;0.22;0.20;;;22.90;99.90;26.20;101845.00;;;;5086329;28;20198;-66
2023/08/16 19:23:09;;;;;;;0.30;0.30;;;22.90;99.90;26.40;101850.00;;;;5060338;28;20193;-66
2023/08/16 19:25:41;;;;;;;0.10;0.10;;;22.90;99.90;27.00;101858.00;;;;5056265;28;20185;-66
2023/08/16 19:28:25;;;;;;;0.10;0.10;;;23.10;99.90;28.00;101875.00;;;;5066119;28;20188;-66
2023/08/16 19:31:14;;;;;;;1.40;1.40;;;23.30;99.90;28.20;101897.00;;;;5054084;28;20193;-66
2023/08/16 19:34:06;;;;;;;0.45;0.45;;;23.50;99.90;27.70;101899.00;;;;5045141;28;20213;-66
2023/08/16 19:37:07;;;;;;;0.10;0.10;;;23.40;99.90;27.70;101897.00;;;;5058675;28;20193;-66
2023/08/16 19:39:51;;;;;;;0.10;0.10;;;23.40;99.90;27.20;101885.00;;;;5072999;28;20228;-66
2023/08/16 19:42:24;;;;;;;0.10;0.10;;;23.20;99.90;27.60;101895.00;;;;5066637;28;20582;-66
2023/08/16 19:45:05;;;;;;;0.10;0.10;;;23.20;99.90;26.50;101895.00;;;;5063502;28;20194;-66
2023/08/16 19:47:49;;;;;;;0.10;0.10;;;23.10;99.90;27.20;101895.00;;;;5066387;28;20224;-66
2023/08/16 19:50:42;;;;;;;0.20;0.20;;;23.10;99.90;26.80;101901.00;;;;5060042;28;20272;-66
2023/08/16 19:53:15;;;;;;;0.20;0.20;;;23.00;99.90;27.90;101901.00;;;;5075399;28;20216;-67
2023/08/16 19:55:59;;;;;;;0.20;0.20;;;23.20;99.90;27.00;101901.00;;;;5046420;28;20243;-66
2023/08/16 19:58:42;;;;;;;0.10;0.10;;;23.20;99.90;26.10;101895.00;;;;5076676;28;20206;-67